Time;durP1;ratioP1;P1;durP2;ratioP2;P2;SDS_P1;SDS_P2;PMS_P1;PMS_P2;Temp;Humidity;BMP_temperature;BMP_pressure;BME280_temperature;BME280_humidity;BME280_pressure;Samples;Min_cycle;Max_cycle;Signal;HPM_P1;HPM_P2
2023/09/23 00:00:35;;;;;;;;;;;;;;;17.02;100.00;97318.72;5115865;28;19991;-73
2023/09/23 00:03:02;;;;;;;;;;;;;;;16.96;100.00;97328.84;5106761;28;19928;-73
2023/09/23 00:05:29;;;;;;;;;;;;;;;17.18;100.00;97344.84;5120906;28;19936;-72
2023/09/23 00:07:55;;;;;;;;;;;;;;;17.48;100.00;97345.78;5122237;28;19924;-72
2023/09/23 00:10:22;;;;;;;;;;;;;;;17.44;100.00;97344.03;5119376;28;19927;-72
2023/09/23 00:12:50;;;;;;;;;;;;;;;17.44;100.00;97350.22;5115373;28;19954;-72
2023/09/23 00:15:17;;;;;;;;;;;;;;;17.54;100.00;97347.19;5118377;28;19946;-73
2023/09/23 00:17:46;;;;;;;;;;;;;;;17.58;100.00;97352.75;5120425;28;19963;-73
2023/09/23 00:20:17;;;;;;;;;;;;;;;17.37;100.00;97347.22;5121701;28;19924;-73
2023/09/23 00:22:45;;;;;;;;;;;;;;;17.35;100.00;97344.06;5122159;28;19924;-72
2023/09/23 00:25:13;;;;;;;;;;;;;;;17.41;100.00;97350.06;5119830;28;19922;-73
2023/09/23 00:27:40;;;;;;;;;;;;;;;17.36;100.00;97344.84;5113221;28;19960;-73
2023/09/23 00:30:12;;;;;;;;;;;;;;;17.43;100.00;97364.84;5122806;28;19924;-73
2023/09/23 00:32:39;;;;;;;;;;;;;;;17.55;100.00;97358.81;5121346;28;19920;-73
2023/09/23 00:35:06;;;;;;;;;;;;;;;17.65;100.00;97344.97;5119454;28;19919;-73
2023/09/23 00:37:33;;;;;;;;;;;;;;;17.70;100.00;97352.91;5116433;28;19912;-73
2023/09/23 00:40:00;;;;;;;;;;;;;;;17.76;100.00;97354.31;5120458;28;19930;-73
2023/09/23 00:42:26;;;;;;;;;;;;;;;17.86;100.00;97356.66;5121333;28;19947;-73
2023/09/23 00:44:52;;;;;;;;;;;;;;;17.75;100.00;97360.84;5120890;28;19932;-73
2023/09/23 00:47:20;;;;;;;;;;;;;;;17.74;100.00;97367.34;5121208;28;19943;-74
2023/09/23 00:49:47;;;;;;;;;;;;;;;17.54;100.00;97370.69;5115096;28;19930;-74
2023/09/23 00:52:14;;;;;;;;;;;;;;;17.43;100.00;97377.53;5117370;28;19924;-74
2023/09/23 00:54:42;;;;;;;;;;;;;;;17.32;100.00;97384.38;5118981;28;19987;-73
2023/09/23 00:57:09;;;;;;;;;;;;;;;17.27;100.00;97382.63;5119586;28;19931;-73
2023/09/23 00:59:36;;;;;;;;;;;;;;;17.18;100.00;97381.84;5120908;28;19923;-73
2023/09/23 01:02:03;;;;;;;;;;;;;;;17.04;100.00;97367.72;5115675;28;19938;-71
2023/09/23 01:04:31;;;;;;;;;;;;;;;16.69;100.00;97366.91;5114731;28;19924;-71
2023/09/23 01:06:59;;;;;;;;;;;;;;;16.56;100.00;97370.50;5107661;28;19924;-72
2023/09/23 01:09:26;;;;;;;;;;;;;;;16.65;100.00;97374.03;5121259;28;19962;-72
2023/09/23 01:11:52;;;;;;;;;;;;;;;16.87;100.00;97378.50;5123646;28;19932;-72
2023/09/23 01:14:22;;;;;;;;;;;;;;;17.03;100.00;97387.72;5119088;28;19972;-71
2023/09/23 01:16:48;;;;;;;;;;;;;;;17.07;100.00;97397.56;5113894;28;19924;-71
2023/09/23 01:19:18;;;;;;;;;;;;;;;17.27;100.00;97399.63;5098472;28;19931;-72
2023/09/23 01:21:49;;;;;;;;;;;;;;;17.21;100.00;97406.28;5118916;28;19928;-72
2023/09/23 01:24:18;;;;;;;;;;;;;;;17.17;100.00;97408.06;5111892;28;19931;-72
2023/09/23 01:26:45;;;;;;;;;;;;;;;17.12;100.00;97405.50;5112070;28;19931;-72
2023/09/23 01:29:12;;;;;;;;;;;;;;;17.06;100.00;97405.97;5116589;28;19920;-72
2023/09/23 01:31:39;;;;;;;;;;;;;;;17.20;100.00;97406.63;5118457;28;19935;-71
2023/09/23 01:34:06;;;;;;;;;;;;;;;17.41;100.00;97410.25;5118395;28;20441;-72
2023/09/23 01:36:33;;;;;;;;;;;;;;;17.55;100.00;97420.91;5119831;28;19927;-72
2023/09/23 01:38:59;;;;;;;;;;;;;;;17.45;100.00;97418.50;5113928;28;19939;-72
2023/09/23 01:41:27;;;;;;;;;;;;;;;17.49;100.00;97408.66;5114492;28;19942;-72
2023/09/23 01:43:54;;;;;;;;;;;;;;;17.57;100.00;97419.50;5118550;28;19924;-72
2023/09/23 01:46:20;;;;;;;;;;;;;;;17.64;100.00;97422.47;5116321;28;19999;-72
2023/09/23 01:48:46;;;;;;;;;;;;;;;17.67;100.00;97426.47;5119613;28;19923;-72
2023/09/23 01:51:16;;;;;;;;;;;;;;;17.68;100.00;97438.84;5115637;28;19928;-72
2023/09/23 01:53:42;;;;;;;;;;;;;;;17.71;100.00;97428.19;5113284;28;19942;-72
2023/09/23 01:56:09;;;;;;;;;;;;;;;17.72;100.00;97429.00;5116684;28;19924;-72
2023/09/23 01:58:37;;;;;;;;;;;;;;;17.72;100.00;97429.00;5118094;28;19927;-73
2023/09/23 02:01:04;;;;;;;;;;;;;;;17.70;100.00;97445.50;5119642;28;19939;-73
2023/09/23 02:03:30;;;;;;;;;;;;;;;17.68;100.00;97453.13;5118011;28;19931;-73
2023/09/23 02:05:57;;;;;;;;;;;;;;;17.69;100.00;97460.13;5112867;28;19951;-75
2023/09/23 02:08:23;;;;;;;;;;;;;;;17.68;100.00;97460.44;5114874;28;20457;-73
2023/09/23 02:10:51;;;;;;;;;;;;;;;17.68;100.00;97466.63;5118114;28;19932;-73
2023/09/23 02:13:18;;;;;;;;;;;;;;;17.63;100.00;97466.81;5119527;28;19932;-73
2023/09/23 02:15:46;;;;;;;;;;;;;;;17.66;100.00;97463.47;5111413;28;19932;-73
2023/09/23 02:18:14;;;;;;;;;;;;;;;17.65;100.00;97456.47;5115559;28;19951;-73
2023/09/23 02:20:41;;;;;;;;;;;;;;;17.68;100.00;97455.84;5117893;28;20202;-72
2023/09/23 02:23:08;;;;;;;;;;;;;;;17.70;100.00;97460.94;5118036;28;19924;-73
2023/09/23 02:25:35;;;;;;;;;;;;;;;17.69;100.00;97456.63;5119256;28;19923;-73
2023/09/23 02:28:01;;;;;;;;;;;;;;;17.66;100.00;97460.78;5113991;28;19935;-72
2023/09/23 02:30:28;;;;;;;;;;;;;;;17.58;100.00;97471.56;5114109;28;19963;-72
2023/09/23 02:32:58;;;;;;;;;;;;;;;17.61;100.00;97465.53;5100178;28;19935;-72
2023/09/23 02:35:25;;;;;;;;;;;;;;;17.64;100.00;97470.31;5117921;28;20027;-72
2023/09/23 02:37:53;;;;;;;;;;;;;;;17.67;100.00;97464.28;5119558;28;20046;-72
2023/09/23 02:40:20;;;;;;;;;;;;;;;17.67;100.00;97466.97;5116282;28;19930;-72
2023/09/23 02:42:47;;;;;;;;;;;;;;;17.66;100.00;97471.56;5112863;28;19928;-72
2023/09/23 02:45:15;;;;;;;;;;;;;;;17.65;100.00;97482.69;5113417;28;19995;-72
2023/09/23 02:47:43;;;;;;;;;;;;;;;17.61;100.00;97489.81;5112013;28;19924;-72
2023/09/23 02:50:13;;;;;;;;;;;;;;;17.59;100.00;97483.97;5118610;28;19969;-72
2023/09/23 02:52:40;;;;;;;;;;;;;;;17.62;100.00;97484.13;5118597;28;20359;-72
2023/09/23 02:55:10;;;;;;;;;;;;;;;17.58;100.00;97493.97;5114105;28;19924;-72
2023/09/23 02:57:37;;;;;;;;;;;;;;;17.52;100.00;97499.81;5112477;28;19930;-72
2023/09/23 03:00:16;;;;;;;;;;;;;;;17.52;100.00;97510.59;5116815;28;20023;-72
2023/09/23 03:02:45;;;;;;;;;;;;;;;17.53;100.00;97506.78;5099672;28;19931;-72
2023/09/23 03:05:16;;;;;;;;;;;;;;;17.54;100.00;97500.28;5115872;28;19924;-73
2023/09/23 03:07:42;;;;;;;;;;;;;;;17.55;100.00;97497.28;5112260;28;19932;-72
2023/09/23 03:10:12;;;;;;;;;;;;;;;17.56;100.00;97511.59;5115783;28;19983;-72
2023/09/23 03:12:43;;;;;;;;;;;;;;;17.52;100.00;97507.91;5117432;28;19924;-73
2023/09/23 03:15:14;;;;;;;;;;;;;;;17.52;100.00;97506.00;5117368;28;20414;-73
2023/09/23 03:17:42;;;;;;;;;;;;;;;17.52;100.00;97507.91;5120603;28;19927;-73
2023/09/23 03:20:21;;;;;;;;;;;;;;;17.51;100.00;97506.34;5118558;28;19924;-71
2023/09/23 03:22:49;;;;;;;;;;;;;;;17.48;100.00;97504.25;5116008;28;19927;-72
2023/09/23 03:25:19;;;;;;;;;;;;;;;17.47;100.00;97503.47;5118517;28;19924;-72
2023/09/23 03:27:47;;;;;;;;;;;;;;;17.49;100.00;97500.44;5102673;28;19924;-72
2023/09/23 03:30:14;;;;;;;;;;;;;;;17.51;100.00;97506.34;5121063;28;19928;-72
2023/09/23 03:32:40;;;;;;;;;;;;;;;17.52;100.00;97516.00;5122315;28;19954;-72
2023/09/23 03:35:08;;;;;;;;;;;;;;;17.52;100.00;97516.00;5117044;28;19987;-72
2023/09/23 03:37:36;;;;;;;;;;;;;;;17.51;100.00;97509.03;5115747;28;19928;-72
2023/09/23 03:40:07;;;;;;;;;;;;;;;17.52;100.00;97518.69;5120205;28;19991;-72
2023/09/23 03:42:34;;;;;;;;;;;;;;;17.51;100.00;97520.63;5120839;28;19978;-72
2023/09/23 03:45:00;;;;;;;;;;;;;;;17.51;100.00;97528.72;5122295;28;19924;-72
2023/09/23 03:47:26;;;;;;;;;;;;;;;17.48;100.00;97520.47;5120057;28;19924;-72
2023/09/23 03:49:53;;;;;;;;;;;;;;;17.47;100.00;97530.47;5115890;28;20030;-72
2023/09/23 03:52:19;;;;;;;;;;;;;;;17.44;100.00;97536.50;5119006;28;19958;-72
2023/09/23 03:54:45;;;;;;;;;;;;;;;17.46;100.00;97531.56;5120997;28;19935;-72
2023/09/23 03:57:13;;;;;;;;;;;;;;;17.47;100.00;97526.97;5118839;28;19967;-72
2023/09/23 03:59:41;;;;;;;;;;;;;;;17.47;100.00;97529.66;5115299;28;19924;-74
2023/09/23 04:02:08;;;;;;;;;;;;;;;17.47;100.00;97541.25;5119714;28;19924;-72
2023/09/23 04:04:37;;;;;;;;;;;;;;;17.48;100.00;97542.06;5120436;28;19952;-72
2023/09/23 04:07:05;;;;;;;;;;;;;;;17.47;100.00;97548.56;5120558;28;19952;-72
2023/09/23 04:09:32;;;;;;;;;;;;;;;17.47;100.00;97551.25;5121493;28;19962;-72
2023/09/23 04:12:00;;;;;;;;;;;;;;;17.42;100.00;97559.53;5114108;28;19924;-72
2023/09/23 04:14:28;;;;;;;;;;;;;;;17.43;100.00;97561.88;5116602;28;19924;-72
2023/09/23 04:16:55;;;;;;;;;;;;;;;17.44;100.00;97581.59;5118268;28;19912;-72
2023/09/23 04:19:21;;;;;;;;;;;;;;;17.42;100.00;97576.53;5121214;28;20406;-72
2023/09/23 04:21:47;;;;;;;;;;;;;;;17.42;100.00;97576.53;5121981;28;19994;-72
2023/09/23 04:24:14;;;;;;;;;;;;;;;17.42;100.00;97578.41;5117906;28;19953;-72
2023/09/23 04:26:40;;;;;;;;;;;;;;;17.42;100.00;97587.31;5115647;28;19924;-72
2023/09/23 04:29:07;;;;;;;;;;;;;;;17.41;100.00;97593.00;5118127;28;19959;-72
2023/09/23 04:31:35;;;;;;;;;;;;;;;17.25;100.00;97598.84;5120325;28;19963;-72
2023/09/23 04:34:01;;;;;;;;;;;;;;;17.32;100.00;97592.19;5121926;28;19943;-73
2023/09/23 04:36:28;;;;;;;;;;;;;;;17.31;100.00;97601.41;5119187;28;19942;-73
2023/09/23 04:38:54;;;;;;;;;;;;;;;17.31;100.00;97596.78;5115956;28;19923;-72
2023/09/23 04:41:21;;;;;;;;;;;;;;;17.29;100.00;97599.03;5099932;28;19956;-72
2023/09/23 04:43:47;;;;;;;;;;;;;;;17.31;100.00;97596.78;5121718;28;20198;-73
2023/09/23 04:46:14;;;;;;;;;;;;;;;17.30;100.00;97605.22;5104215;28;19951;-73
2023/09/23 04:48:42;;;;;;;;;;;;;;;17.17;100.00;97613.13;5114585;28;19934;-72
2023/09/23 04:51:09;;;;;;;;;;;;;;;17.18;100.00;97603.09;5118395;28;19928;-72
2023/09/23 04:53:35;;;;;;;;;;;;;;;17.20;100.00;97606.31;5101659;28;20016;-72
2023/09/23 04:56:06;;;;;;;;;;;;;;;17.20;100.00;97617.09;5120225;28;19982;-72
2023/09/23 04:58:32;;;;;;;;;;;;;;;17.20;100.00;97617.91;5120716;28;19924;-72
2023/09/23 05:00:59;;;;;;;;;;;;;;;17.21;100.00;97627.56;5113806;28;19970;-72
2023/09/23 05:03:26;;;;;;;;;;;;;;;17.20;100.00;97630.59;5115581;28;19931;-72
2023/09/23 05:05:53;;;;;;;;;;;;;;;17.21;100.00;97632.16;5119670;28;20007;-72
2023/09/23 05:08:20;;;;;;;;;;;;;;;17.20;100.00;97642.19;5119575;28;19938;-72
2023/09/23 05:10:48;;;;;;;;;;;;;;;17.20;100.00;97650.28;5120591;28;19991;-73
2023/09/23 05:13:17;;;;;;;;;;;;;;;17.18;100.00;97649.78;5117209;28;20012;-72
2023/09/23 05:15:43;;;;;;;;;;;;;;;17.19;100.00;97656.78;5114320;28;19931;-72
2023/09/23 05:18:10;;;;;;;;;;;;;;;17.15;100.00;97657.69;5117325;28;19958;-72
2023/09/23 05:20:36;;;;;;;;;;;;;;;17.17;100.00;97660.91;5118961;28;19932;-72
2023/09/23 05:23:05;;;;;;;;;;;;;;;17.14;100.00;97667.69;5120634;28;19942;-72
2023/09/23 05:25:31;;;;;;;;;;;;;;;17.14;100.00;97673.09;5118976;28;19924;-72
2023/09/23 05:27:59;;;;;;;;;;;;;;;17.16;100.00;97664.69;5114234;28;19983;-73
2023/09/23 05:30:27;;;;;;;;;;;;;;;17.16;100.00;97668.19;5115224;28;20015;-72
2023/09/23 05:32:53;;;;;;;;;;;;;;;17.15;100.00;97672.00;5119139;28;19939;-72
2023/09/23 05:35:20;;;;;;;;;;;;;;;17.16;100.00;97681.69;5120536;28;19925;-73
2023/09/23 05:37:47;;;;;;;;;;;;;;;17.08;100.00;97679.72;5112110;28;19928;-72
2023/09/23 05:40:23;;;;;;;;;;;;;;;17.12;100.00;97688.00;5116147;28;19926;-72
2023/09/23 05:42:50;;;;;;;;;;;;;;;17.13;100.00;97687.69;5118651;28;20275;-72
2023/09/23 05:45:16;;;;;;;;;;;;;;;17.13;100.00;97693.09;5118853;28;19928;-72
2023/09/23 05:47:45;;;;;;;;;;;;;;;17.14;100.00;97694.66;5119975;28;19928;-72
2023/09/23 05:50:12;;;;;;;;;;;;;;;17.13;100.00;97703.09;5098671;28;19923;-72
2023/09/23 05:52:39;;;;;;;;;;;;;;;17.14;100.00;97710.09;5113800;28;19931;-72
2023/09/23 05:55:05;;;;;;;;;;;;;;;17.07;100.00;97709.72;5118706;28;19924;-72
2023/09/23 05:57:34;;;;;;;;;;;;;;;17.10;100.00;97715.31;5118612;28;19924;-72
2023/09/23 06:00:01;;;;;;;;;;;;;;;17.07;100.00;97712.41;5111213;28;19973;-72
2023/09/23 06:02:27;;;;;;;;;;;;;;;17.08;100.00;97716.72;5119659;28;19978;-72
2023/09/23 06:04:54;;;;;;;;;;;;;;;17.09;100.00;97719.09;5113592;28;19987;-72
2023/09/23 06:07:20;;;;;;;;;;;;;;;17.12;100.00;97729.28;5115288;28;19935;-72
2023/09/23 06:09:47;;;;;;;;;;;;;;;17.10;100.00;97730.69;5118388;28;19997;-72
2023/09/23 06:12:13;;;;;;;;;;;;;;;17.13;100.00;97738.16;5118721;28;19920;-72
2023/09/23 06:14:41;;;;;;;;;;;;;;;17.12;100.00;97745.47;5119133;28;19931;-72
2023/09/23 06:17:07;;;;;;;;;;;;;;;17.09;100.00;97750.69;5114410;28;19949;-72
2023/09/23 06:19:34;;;;;;;;;;;;;;;17.10;100.00;97753.09;5113211;28;19924;-72
2023/09/23 06:22:00;;;;;;;;;;;;;;;17.10;100.00;97761.19;5117717;28;20021;-72
2023/09/23 06:24:26;;;;;;;;;;;;;;;17.11;100.00;97760.03;5118565;28;20000;-72
2023/09/23 06:26:53;;;;;;;;;;;;;;;17.06;100.00;97770.97;5118953;28;19959;-72
2023/09/23 06:29:19;;;;;;;;;;;;;;;17.08;100.00;97759.91;5091365;28;19924;-72
2023/09/23 06:31:47;;;;;;;;;;;;;;;17.05;100.00;97763.97;5117469;28;19952;-72
2023/09/23 06:34:13;;;;;;;;;;;;;;;17.01;100.00;97771.13;5117954;28;19924;-72
2023/09/23 06:36:39;;;;;;;;;;;;;;;17.06;100.00;97764.78;5118146;28;19930;-72
2023/09/23 06:39:06;;;;;;;;;;;;;;;17.04;100.00;97762.41;5114856;28;19920;-72
2023/09/23 06:41:32;;;;;;;;;;;;;;;16.99;100.00;97767.91;5113143;28;19924;-73
2023/09/23 06:43:58;;;;;;;;;;;;;;;17.03;100.00;97773.50;5102727;28;19983;-73
2023/09/23 06:46:25;;;;;;;;;;;;;;;17.03;100.00;97774.28;5107657;28;19925;-74
2023/09/23 06:48:52;;;;;;;;;;;;;;;17.04;100.00;97775.91;5119137;28;19955;-74
2023/09/23 06:51:19;;;;;;;;;;;;;;;16.97;100.00;97770.13;5116711;28;19931;-73
2023/09/23 06:53:47;;;;;;;;;;;;;;;16.97;100.00;97774.72;5115849;28;19928;-73
2023/09/23 06:56:13;;;;;;;;;;;;;;;17.02;100.00;97788.09;5120850;28;20001;-73
2023/09/23 06:58:39;;;;;;;;;;;;;;;17.04;100.00;97784.00;5122575;28;19931;-73
2023/09/23 07:01:06;;;;;;;;;;;;;;;17.02;100.00;97782.72;5123033;28;19950;-73
2023/09/23 07:03:32;;;;;;;;;;;;;;;17.02;100.00;97788.88;5122472;28;20010;-73
2023/09/23 07:06:00;;;;;;;;;;;;;;;17.01;100.00;97792.69;5113042;28;19924;-73
2023/09/23 07:08:26;;;;;;;;;;;;;;;16.98;100.00;97793.31;5118456;28;19935;-72
2023/09/23 07:10:54;;;;;;;;;;;;;;;17.02;100.00;97802.38;5103322;28;19967;-72
2023/09/23 07:13:21;;;;;;;;;;;;;;;17.02;100.00;97796.97;5122680;28;19947;-72
2023/09/23 07:15:47;;;;;;;;;;;;;;;17.05;100.00;97806.38;5119245;28;19995;-72
2023/09/23 07:18:14;;;;;;;;;;;;;;;16.94;100.00;97811.22;5123502;28;19924;-72
2023/09/23 07:20:40;;;;;;;;;;;;;;;16.95;100.00;97812.81;5115615;28;19920;-72
2023/09/23 07:23:08;;;;;;;;;;;;;;;16.81;100.00;97814.75;5121129;28;20679;-72
2023/09/23 07:25:38;;;;;;;;;;;;;;;16.80;100.00;97823.16;5122426;28;19919;-72
2023/09/23 07:28:06;;;;;;;;;;;;;;;16.55;100.00;97813.75;5117876;28;20009;-73
2023/09/23 07:30:33;;;;;;;;;;;;;;;16.31;100.00;97827.41;5116552;28;19936;-73
2023/09/23 07:33:00;;;;;;;;;;;;;;;16.57;100.00;97817.72;5105916;28;19924;-73
2023/09/23 07:35:30;;;;;;;;;;;;;;;16.47;100.00;97830.59;5121040;28;19924;-73
2023/09/23 07:37:56;;;;;;;;;;;;;;;16.62;100.00;97824.88;5121304;28;19924;-73
2023/09/23 07:40:24;;;;;;;;;;;;;;;16.78;100.00;97831.53;5120549;28;19959;-73
2023/09/23 07:42:50;;;;;;;;;;;;;;;16.80;100.00;97840.13;5116180;28;19932;-73
2023/09/23 07:45:16;;;;;;;;;;;;;;;16.25;100.00;97849.41;5115727;28;19954;-73
2023/09/23 07:47:43;;;;;;;;;;;;;;;16.35;100.00;97859.94;5114240;28;19956;-73
2023/09/23 07:50:10;;;;;;;;;;;;;;;16.60;100.00;97875.63;5121603;28;19924;-72
2023/09/23 07:52:36;;;;;;;;;;;;;;;16.48;100.00;97869.94;5122036;28;19954;-74
2023/09/23 07:55:04;;;;;;;;;;;;;;;16.65;100.00;97879.00;5098543;28;19955;-74
2023/09/23 07:57:32;;;;;;;;;;;;;;;16.75;100.00;97878.00;5114519;28;19963;-74
2023/09/23 07:59:59;;;;;;;;;;;;;;;16.69;100.00;97876.50;5109628;28;19932;-73
2023/09/23 08:02:25;;;;;;;;;;;;;;;16.65;100.00;97880.91;5120957;28;20022;-73
2023/09/23 08:04:51;;;;;;;;;;;;;;;16.44;100.00;97885.09;5120086;28;19963;-73
2023/09/23 08:07:18;;;;;;;;;;;;;;;16.45;100.00;97892.09;5118512;28;19927;-73
2023/09/23 08:09:44;;;;;;;;;;;;;;;16.39;100.00;97898.69;5114060;28;19948;-73
2023/09/23 08:12:10;;;;;;;;;;;;;;;16.60;100.00;97897.19;5120227;28;19924;-73
2023/09/23 08:14:38;;;;;;;;;;;;;;;16.84;100.00;97902.34;5120981;28;19995;-75
2023/09/23 08:17:05;;;;;;;;;;;;;;;16.89;100.00;97910.34;5121753;28;19931;-73
2023/09/23 08:19:31;;;;;;;;;;;;;;;16.81;100.00;97917.25;5112422;28;19951;-75
2023/09/23 08:21:57;;;;;;;;;;;;;;;16.68;100.00;97923.47;5120295;28;19969;-73
2023/09/23 08:24:24;;;;;;;;;;;;;;;16.49;100.00;97926.25;5120371;28;19925;-73
2023/09/23 08:26:50;;;;;;;;;;;;;;;16.25;100.00;97931.03;5120936;28;19952;-74
2023/09/23 08:29:17;;;;;;;;;;;;;;;16.01;100.00;97931.22;5118864;28;19928;-74
2023/09/23 08:31:45;;;;;;;;;;;;;;;16.43;100.00;97935.50;5115769;28;19924;-74
2023/09/23 08:34:11;;;;;;;;;;;;;;;16.44;100.00;97933.63;5119045;28;19920;-74
2023/09/23 08:36:37;;;;;;;;;;;;;;;16.60;100.00;97932.25;5102152;28;19953;-74
2023/09/23 08:39:07;;;;;;;;;;;;;;;16.81;100.00;97936.13;5121001;28;19924;-74
2023/09/23 08:41:34;;;;;;;;;;;;;;;16.98;100.00;97941.69;5116941;28;19923;-74
2023/09/23 08:44:04;;;;;;;;;;;;;;;16.89;100.00;97942.72;5119499;28;19967;-74
2023/09/23 08:46:31;;;;;;;;;;;;;;;16.56;100.00;97945.53;5121964;28;19923;-74
2023/09/23 08:48:59;;;;;;;;;;;;;;;16.77;100.00;97959.41;5127727;28;19958;-75
2023/09/23 08:51:25;;;;;;;;;;;;;;;16.98;100.00;97952.47;5125040;28;19924;-75
2023/09/23 08:53:53;;;;;;;;;;;;;;;16.90;100.00;97945.09;5122380;28;19928;-74
2023/09/23 08:56:19;;;;;;;;;;;;;;;17.06;100.00;97945.56;5125247;28;19924;-73
2023/09/23 08:58:48;;;;;;;;;;;;;;;17.15;100.00;97951.81;5104700;28;19949;-73
2023/09/23 09:01:14;;;;;;;;;;;;;;;17.15;100.00;97962.63;5125518;28;19935;-73
2023/09/23 09:03:41;;;;;;;;;;;;;;;16.97;100.00;97942.78;5126668;28;19912;-73
2023/09/23 09:06:17;;;;;;;;;;;;;;;16.99;100.00;97959.47;5124056;28;19995;-74
2023/09/23 09:08:44;;;;;;;;;;;;;;;17.12;100.00;97941.63;5103636;28;19912;-73
2023/09/23 09:11:11;;;;;;;;;;;;;;;17.24;100.00;97947.31;5120067;28;19924;-73
2023/09/23 09:13:38;;;;;;;;;;;;;;;17.08;100.00;97943.38;5120988;28;19927;-73
2023/09/23 09:16:04;;;;;;;;;;;;;;;16.97;100.00;97953.56;5117403;28;19947;-74
2023/09/23 09:18:31;;;;;;;;;;;;;;;17.06;100.00;97949.06;5121103;28;19930;-74
2023/09/23 09:20:57;;;;;;;;;;;;;;;17.16;100.00;97940.75;5097246;28;19927;-74
2023/09/23 09:23:32;;;;;;;;;;;;;;;17.22;100.00;97942.22;5116397;28;19920;-74
2023/09/23 09:25:59;;;;;;;;;;;;;;;17.24;100.00;97940.00;5121007;28;20000;-74
2023/09/23 09:28:25;;;;;;;;;;;;;;;17.36;100.00;97936.00;5122396;28;19920;-74
2023/09/23 09:30:55;;;;;;;;;;;;;;;17.57;100.00;97945.22;5124292;28;19920;-74
2023/09/23 09:33:23;;;;;;;;;;;;;;;17.61;98.85;97933.47;5119433;28;19965;-74
2023/09/23 09:35:50;;;;;;;;;;;;;;;17.63;100.00;97944.00;5098256;28;19930;-74
2023/09/23 09:38:18;;;;;;;;;;;;;;;17.81;99.78;97934.91;5117409;28;19924;-74
2023/09/23 09:40:46;;;;;;;;;;;;;;;17.91;98.39;97950.84;5119190;28;19928;-74
2023/09/23 09:43:14;;;;;;;;;;;;;;;17.85;96.72;97946.69;5120122;28;19928;-74
2023/09/23 09:45:42;;;;;;;;;;;;;;;17.89;98.07;97936.84;5108330;28;19924;-74
2023/09/23 09:48:09;;;;;;;;;;;;;;;17.92;97.99;97941.63;5110409;28;19930;-74
2023/09/23 09:50:38;;;;;;;;;;;;;;;17.96;97.02;97933.69;5118426;28;19924;-74
2023/09/23 09:53:05;;;;;;;;;;;;;;;18.17;95.84;97942.84;5118471;28;19953;-75
2023/09/23 09:55:34;;;;;;;;;;;;;;;18.37;93.36;97945.03;5119504;28;20289;-74
2023/09/23 09:58:02;;;;;;;;;;;;;;;18.52;90.10;97936.53;5113971;28;19995;-73
2023/09/23 10:00:30;;;;;;;;;;;;;;;18.56;88.67;97939.41;5096442;28;19924;-74
2023/09/23 10:02:58;;;;;;;;;;;;;;;18.70;87.62;97934.66;5118605;28;19962;-74
2023/09/23 10:05:31;;;;;;;;;;;;;;;18.88;85.80;97928.16;5118782;28;19931;-73
2023/09/23 10:07:57;;;;;;;;;;;;;;;19.16;84.15;97932.19;5118942;28;20099;-73
2023/09/23 10:10:33;;;;;;;;;;;;;;;19.29;81.56;97935.84;5118552;28;20344;-73
2023/09/23 10:13:08;;;;;;;;;;;;;;;19.30;78.17;97932.03;5111307;28;19928;-73
2023/09/23 10:15:40;;;;;;;;;;;;;;;19.16;79.76;97924.06;5113533;28;19924;-73
2023/09/23 10:18:10;;;;;;;;;;;;;;;19.45;78.83;97920.75;5099355;28;19928;-73
2023/09/23 10:20:40;;;;;;;;;;;;;;;19.19;79.88;97928.03;5118100;28;19924;-73
2023/09/23 10:23:08;;;;;;;;;;;;;;;19.08;80.53;97930.28;5101492;28;19924;-74
2023/09/23 10:25:37;;;;;;;;;;;;;;;19.02;79.89;97930.75;5118438;28;19966;-74
2023/09/23 10:28:05;;;;;;;;;;;;;;;18.76;79.16;97944.22;5113069;28;19930;-73
2023/09/23 10:30:35;;;;;;;;;;;;;;;18.48;78.92;97937.41;5113300;28;19931;-74
2023/09/23 10:33:01;;;;;;;;;;;;;;;18.42;81.18;97927.84;5107849;28;19928;-74
2023/09/23 10:35:28;;;;;;;;;;;;;;;18.03;76.88;97932.16;5118321;28;19924;-74
2023/09/23 10:37:55;;;;;;;;;;;;;;;18.19;82.16;97930.66;5100846;28;19974;-74
2023/09/23 10:40:21;;;;;;;;;;;;;;;18.34;81.62;97927.53;5109534;28;19928;-74
2023/09/23 10:42:49;;;;;;;;;;;;;;;18.42;81.23;97928.66;5117797;28;19930;-74
2023/09/23 10:45:16;;;;;;;;;;;;;;;18.49;80.58;97928.22;5115402;28;19955;-75
2023/09/23 10:47:44;;;;;;;;;;;;;;;18.52;80.48;97941.94;5116079;28;19924;-74
2023/09/23 10:50:11;;;;;;;;;;;;;;;18.44;79.86;97941.88;5115613;28;19992;-74
2023/09/23 10:52:38;;;;;;;;;;;;;;;18.53;79.85;97945.44;5112962;28;19931;-74
2023/09/23 10:55:05;;;;;;;;;;;;;;;18.54;78.90;97944.31;5098940;28;19924;-74
2023/09/23 10:57:31;;;;;;;;;;;;;;;18.43;76.26;97946.47;5117877;28;19925;-74
2023/09/23 10:59:59;;;;;;;;;;;;;;;18.47;79.56;97949.38;5117974;28;19924;-74
2023/09/23 11:02:25;;;;;;;;;;;;;;;18.47;80.88;97954.78;5099907;28;19923;-74
2023/09/23 11:04:55;;;;;;;;;;;;;;;18.42;80.49;97957.59;5112976;28;19924;-74
2023/09/23 11:07:22;;;;;;;;;;;;;;;18.38;79.65;97952.03;5115192;28;19931;-74
2023/09/23 11:09:48;;;;;;;;;;;;;;;18.34;81.26;97953.75;5100053;28;19924;-74
2023/09/23 11:12:15;;;;;;;;;;;;;;;18.39;81.51;97966.34;5118103;28;19963;-74
2023/09/23 11:14:42;;;;;;;;;;;;;;;18.34;81.71;97959.19;5119356;28;20411;-74
2023/09/23 11:17:19;;;;;;;;;;;;;;;18.42;81.86;97965.72;5115760;28;19912;-74
2023/09/23 11:19:52;;;;;;;;;;;;;;;18.37;82.41;97963.97;5113195;28;19985;-73
2023/09/23 11:22:24;;;;;;;;;;;;;;;18.46;82.17;97967.50;5115040;28;19928;-73
2023/09/23 11:24:51;;;;;;;;;;;;;;;18.42;81.93;97957.59;5117750;28;20003;-74
2023/09/23 11:27:18;;;;;;;;;;;;;;;18.22;79.15;97967.88;5118991;28;19924;-73
2023/09/23 11:29:44;;;;;;;;;;;;;;;18.26;82.49;97963.41;5117901;28;19959;-73
2023/09/23 11:32:11;;;;;;;;;;;;;;;18.32;81.00;97951.34;5109315;28;19994;-73
2023/09/23 11:34:37;;;;;;;;;;;;;;;18.05;79.88;97961.56;5117490;28;19934;-74
2023/09/23 11:37:04;;;;;;;;;;;;;;;18.11;81.91;97958.41;5117951;28;19935;-74
2023/09/23 11:39:35;;;;;;;;;;;;;;;18.03;81.71;97959.19;5120949;28;19928;-75
2023/09/23 11:42:02;;;;;;;;;;;;;;;18.15;82.96;97961.31;5116549;28;19983;-73
2023/09/23 11:44:28;;;;;;;;;;;;;;;18.27;81.93;97956.91;5117092;28;19932;-74
2023/09/23 11:46:55;;;;;;;;;;;;;;;18.41;81.15;97954.13;5117388;28;19928;-73
2023/09/23 11:49:21;;;;;;;;;;;;;;;18.51;80.91;97955.75;5120788;28;20688;-73
2023/09/23 11:51:48;;;;;;;;;;;;;;;18.48;77.35;97959.84;5104166;28;19930;-74
2023/09/23 11:54:15;;;;;;;;;;;;;;;18.51;79.72;97955.75;5100112;28;19928;-74
2023/09/23 11:56:43;;;;;;;;;;;;;;;18.58;79.11;97956.09;5116241;28;19925;-74
2023/09/23 11:59:09;;;;;;;;;;;;;;;18.60;78.53;97953.91;5119771;28;19966;-74
2023/09/23 12:01:36;;;;;;;;;;;;;;;18.65;77.89;97953.75;5120633;28;20322;-75
2023/09/23 12:04:02;;;;;;;;;;;;;;;18.61;77.98;97952.78;5121825;28;19924;-74
2023/09/23 12:06:29;;;;;;;;;;;;;;;18.62;76.21;97955.19;5120205;28;20346;-74
2023/09/23 12:08:56;;;;;;;;;;;;;;;18.63;76.89;97945.16;5115729;28;19924;-74
2023/09/23 12:11:23;;;;;;;;;;;;;;;18.73;77.05;97947.56;5117516;28;19924;-75
2023/09/23 12:13:53;;;;;;;;;;;;;;;18.77;76.16;97949.31;5102693;28;19928;-74
2023/09/23 12:16:19;;;;;;;;;;;;;;;18.84;75.70;97946.97;5122860;28;20277;-75
2023/09/23 12:18:48;;;;;;;;;;;;;;;18.82;72.96;97954.59;5115093;28;19924;-74
2023/09/23 12:21:15;;;;;;;;;;;;;;;18.69;74.18;97952.03;5117777;28;19924;-74
2023/09/23 12:23:41;;;;;;;;;;;;;;;18.80;73.87;97951.41;5120266;28;19924;-74
2023/09/23 12:26:09;;;;;;;;;;;;;;;18.81;74.71;97946.78;5120543;28;19964;-74
2023/09/23 12:28:36;;;;;;;;;;;;;;;18.95;74.31;97952.84;5121807;28;19928;-74
2023/09/23 12:31:04;;;;;;;;;;;;;;;18.92;71.76;97958.91;5115858;28;19924;-74
2023/09/23 12:33:30;;;;;;;;;;;;;;;18.96;73.27;97959.06;5116086;28;19950;-74
2023/09/23 12:35:57;;;;;;;;;;;;;;;18.99;75.48;97958.44;5120317;28;19924;-74
2023/09/23 12:38:23;;;;;;;;;;;;;;;19.03;75.75;97954.00;5120010;28;19992;-74